Time;durP1;ratioP1;P1;durP2;ratioP2;P2;SDS_P1;SDS_P2;PMS_P1;PMS_P2;Temp;Humidity;BMP_temperature;BMP_pressure;BME280_temperature;BME280_humidity;BME280_pressure;Samples;Min_cycle;Max_cycle;Signal;HPM_P1;HPM_P2
2023/06/08 00:00:20;;;;;;;11.95;9.00;;;;;;;18.03;100.00;100731.41;4975485;28;20054;-85
2023/06/08 00:02:49;;;;;;;13.15;10.02;;;;;;;18.03;100.00;100732.19;4976106;28;20039;-86
2023/06/08 00:05:18;;;;;;;13.10;9.32;;;;;;;17.89;100.00;100726.81;4957550;28;20042;-85
2023/06/08 00:07:46;;;;;;;13.65;9.57;;;;;;;17.88;100.00;100727.16;4975377;28;20393;-86
2023/06/08 00:10:15;;;;;;;11.73;9.50;;;;;;;17.84;100.00;100727.00;4955193;29;20051;-86
2023/06/08 00:12:42;;;;;;;12.13;9.00;;;;;;;17.78;100.00;100723.59;4975551;28;20039;-86
2023/06/08 00:15:13;;;;;;;11.35;9.02;;;;;;;17.73;100.00;100720.97;4958386;28;20050;-86
2023/06/08 00:17:43;;;;;;;12.27;9.23;;;;;;;17.83;100.00;100728.97;4975457;28;20051;-86
2023/06/08 00:20:13;;;;;;;10.88;8.82;;;;;;;17.88;100.00;100727.97;4975536;28;20058;-86
2023/06/08 00:22:42;;;;;;;11.63;9.63;;;;;;;17.90;100.00;100735.97;4967247;28;20047;-87
2023/06/08 00:25:10;;;;;;;13.27;9.13;;;;;;;17.80;100.00;100726.03;4958412;28;20111;-86
2023/06/08 00:27:39;;;;;;;9.40;7.47;;;;;;;17.83;100.00;100728.97;4975572;28;20059;-86
2023/06/08 00:30:07;;;;;;;9.50;7.93;;;;;;;17.85;100.00;100720.34;4975200;28;20053;-87
2023/06/08 00:32:35;;;;;;;9.32;7.50;;;;;;;17.82;100.00;100712.66;4975300;28;20053;-86
2023/06/08 00:35:06;;;;;;;9.55;6.65;;;;;;;17.61;100.00;100710.56;4958137;28;20047;-86
2023/06/08 00:37:36;;;;;;;8.23;6.40;;;;;;;17.56;100.00;100705.97;4958211;28;20050;-86
2023/06/08 00:40:04;;;;;;;8.40;6.68;;;;;;;17.42;100.00;100705.34;4975039;28;20035;-86
2023/06/08 00:42:34;;;;;;;9.27;6.88;;;;;;;17.38;100.00;100705.16;4975316;28;20054;-86
2023/06/08 00:45:02;;;;;;;7.88;6.20;;;;;;;17.46;100.00;100703.56;4957620;28;20043;-87
2023/06/08 00:47:30;;;;;;;6.72;6.03;;;;;;;17.38;100.00;100707.09;4974795;28;20055;-86
2023/06/08 00:50:02;;;;;;;9.82;6.55;;;;;;;17.43;100.00;100699.47;4974921;28;20054;-86
2023/06/08 00:52:31;;;;;;;8.50;6.57;;;;;;;17.43;100.00;100705.00;4957874;28;20047;-86
2023/06/08 00:55:01;;;;;;;8.40;6.68;;;;;;;17.33;100.00;100700.63;4974936;28;20042;-86
2023/06/08 00:57:32;;;;;;;7.95;6.93;;;;;;;17.29;100.00;100702.38;4974719;28;20047;-87
2023/06/08 01:00:04;;;;;;;8.80;6.63;;;;;;;17.38;100.00;100704.34;4956163;28;20050;-87
2023/06/08 01:02:35;;;;;;;9.52;7.00;;;;;;;17.34;100.00;100693.13;4954294;29;20043;-87
2023/06/08 01:05:03;;;;;;;8.50;6.57;;;;;;;17.31;100.00;100691.00;4968685;28;20055;-87
2023/06/08 01:07:48;;;;;;;9.45;7.22;;;;;;;17.37;100.00;100692.47;4953987;29;20047;-87
2023/06/08 01:10:23;;;;;;;7.88;7.00;;;;;;;17.32;100.00;100698.16;4957663;28;20051;-87
2023/06/08 01:13:29;;;;;;;9.43;6.60;;;;;;;17.25;100.00;100684.00;4974880;28;20043;-87
2023/06/08 01:16:01;;;;;;;;;;;;;;;17.20;100.00;100687.72;4946324;28;20066;-87
2023/06/08 01:18:39;;;;;;;10.25;7.95;;;;;;;17.16;100.00;100675.69;4974221;28;19922;-87
2023/06/08 01:21:35;;;;;;;8.40;6.82;;;;;;;17.13;100.00;100687.38;4975049;28;20054;-87
2023/06/08 01:24:20;;;;;;;8.55;7.03;;;;;;;17.19;100.00;100692.44;4974572;28;20417;-87
2023/06/08 01:26:57;;;;;;;9.30;7.82;;;;;;;17.19;100.00;100692.44;4957522;28;20398;-87
2023/06/08 01:29:27;;;;;;;8.98;7.63;;;;;;;17.13;100.00;100682.69;4974337;28;20051;-87
2023/06/08 01:31:56;;;;;;;7.85;6.70;;;;;;;17.02;100.00;100676.63;4974545;28;20049;-87
2023/06/08 01:34:24;;;;;;;7.72;6.70;;;;;;;17.06;100.00;100679.59;4974522;28;20058;-86
2023/06/08 01:37:06;;;;;;;9.18;6.80;;;;;;;17.05;100.00;100675.16;4956674;28;20053;-86
2023/06/08 01:39:50;;;;;;;8.07;6.35;;;;;;;17.11;100.00;100684.13;4956654;28;20050;-87
2023/06/08 01:42:19;;;;;;;11.40;7.15;;;;;;;17.07;100.00;100678.44;4940992;28;20058;-87
2023/06/08 01:45:00;;;;;;;7.03;6.30;;;;;;;17.05;100.00;100680.69;4973675;28;20046;-87
2023/06/08 01:47:35;;;;;;;9.60;7.13;;;;;;;17.11;100.00;100681.38;4954316;29;20055;-87
2023/06/08 01:50:05;;;;;;;9.40;6.68;;;;;;;17.21;100.00;100683.84;4970034;28;20043;-86
2023/06/08 01:52:35;;;;;;;7.55;6.22;;;;;;;17.19;100.00;100686.91;4941484;28;20375;-87
2023/06/08 01:55:03;;;;;;;7.57;6.32;;;;;;;17.16;100.00;100682.03;4973677;28;20399;-87
2023/06/08 01:57:31;;;;;;;8.15;6.20;;;;;;;17.13;100.00;100688.22;4956538;28;20043;-87
2023/06/08 01:59:59;;;;;;;10.25;6.40;;;;;;;17.05;100.00;100689.00;4956509;28;20046;-86
2023/06/08 02:02:27;;;;;;;7.18;6.40;;;;;;;17.04;100.00;100690.13;4973479;28;20050;-86
2023/06/08 02:04:57;;;;;;;8.35;6.93;;;;;;;17.02;100.00;100687.69;4973651;28;20490;-86
2023/06/08 02:07:25;;;;;;;7.72;6.25;;;;;;;16.98;100.00;100685.84;4973426;28;20054;-87
2023/06/08 02:09:53;;;;;;;7.85;6.28;;;;;;;16.97;100.00;100684.22;4956246;28;20050;-87
2023/06/08 02:12:21;;;;;;;9.13;7.03;;;;;;;16.93;100.00;100689.59;4956642;28;20071;-86
2023/06/08 02:14:49;;;;;;;8.82;6.68;;;;;;;16.96;100.00;100696.44;4956218;28;20073;-86
2023/06/08 02:17:18;;;;;;;8.38;6.55;;;;;;;16.98;100.00;100688.63;4973584;28;20057;-87
2023/06/08 02:19:46;;;;;;;8.40;6.18;;;;;;;17.05;100.00;100697.28;4956502;28;20047;-86
2023/06/08 02:22:15;;;;;;;8.02;6.38;;;;;;;17.20;100.00;100687.72;4973306;28;20402;-87
2023/06/08 02:24:42;;;;;;;8.52;7.03;;;;;;;17.09;100.00;100692.75;4970517;28;20054;-86
2023/06/08 02:27:11;;;;;;;9.32;7.10;;;;;;;17.02;100.00;100692.38;4972880;28;20042;-86
2023/06/08 02:29:40;;;;;;;9.48;6.07;;;;;;;17.01;100.00;100680.50;4971952;28;20046;-86
2023/06/08 02:32:08;;;;;;;6.50;5.90;;;;;;;17.03;100.00;100689.34;4973425;28;20047;-86
2023/06/08 02:34:37;;;;;;;6.53;5.82;;;;;;;17.04;100.00;100688.19;4973295;28;20592;-87
2023/06/08 02:37:07;;;;;;;8.30;6.20;;;;;;;16.93;100.00;100690.38;4973422;28;20781;-86
2023/06/08 02:39:36;;;;;;;8.85;5.88;;;;;;;16.75;100.00;100694.22;4968497;28;20043;-87
2023/06/08 02:42:04;;;;;;;6.95;5.68;;;;;;;16.69;100.00;100699.09;4973331;28;20046;-86
2023/06/08 02:44:32;;;;;;;7.18;5.90;;;;;;;16.72;100.00;100692.13;4968827;28;20043;-87
2023/06/08 02:47:00;;;;;;;6.97;6.32;;;;;;;16.71;100.00;100696.81;4971860;28;20508;-86
2023/06/08 02:49:29;;;;;;;6.72;6.13;;;;;;;16.64;100.00;100693.72;4969418;28;20051;-86
2023/06/08 02:51:57;;;;;;;8.52;6.50;;;;;;;16.62;100.00;100694.03;4972132;28;20042;-86
2023/06/08 02:54:25;;;;;;;6.75;5.90;;;;;;;16.58;100.00;100695.81;4968784;28;20047;-87
2023/06/08 02:56:53;;;;;;;7.15;5.70;;;;;;;16.60;100.00;100693.53;4970632;28;20054;-86
2023/06/08 02:59:23;;;;;;;6.93;6.22;;;;;;;16.59;100.00;100696.59;4955814;28;20038;-86
2023/06/08 03:01:54;;;;;;;6.60;5.95;;;;;;;16.53;100.00;100693.19;4971936;28;20054;-86
2023/06/08 03:04:28;;;;;;;8.18;6.47;;;;;;;16.58;100.00;100695.81;4971708;28;20046;-87
2023/06/08 03:07:01;;;;;;;6.13;5.38;;;;;;;16.57;100.00;100696.91;4966778;28;20483;-87
2023/06/08 03:09:31;;;;;;;7.95;6.10;;;;;;;16.57;100.00;100685.06;4959465;28;20489;-86
2023/06/08 03:12:05;;;;;;;6.63;5.97;;;;;;;16.76;100.00;100693.91;4952052;29;20055;-86
2023/06/08 03:14:34;;;;;;;6.65;4.85;;;;;;;16.73;100.00;100685.47;4952791;29;20050;-86
2023/06/08 03:17:03;;;;;;;8.02;6.03;;;;;;;16.62;100.00;100694.03;4952591;29;20509;-87
2023/06/08 03:19:36;;;;;;;6.72;5.65;;;;;;;16.57;100.00;100688.63;4962586;28;20050;-86
2023/06/08 03:22:06;;;;;;;7.25;6.22;;;;;;;16.67;100.00;100690.28;4971995;28;20054;-86
2023/06/08 03:24:54;;;;;;;8.10;5.72;;;;;;;16.58;100.00;100683.94;4971524;28;20050;-87
2023/06/08 03:27:23;;;;;;;8.15;6.13;;;;;;;16.69;100.00;100688.03;4971953;28;20050;-87
2023/06/08 03:29:53;;;;;;;9.45;5.93;;;;;;;16.65;100.00;100687.88;4968468;28;20059;-87
2023/06/08 03:32:25;;;;;;;5.32;4.82;;;;;;;16.60;100.00;100693.53;4952750;29;20047;-87
2023/06/08 03:34:56;;;;;;;6.45;4.80;;;;;;;16.58;100.00;100686.69;4966193;28;20035;-87
2023/06/08 03:37:25;;;;;;;6.07;4.90;;;;;;;16.42;100.00;100689.84;4972599;28;20059;-87
2023/06/08 03:39:54;;;;;;;6.95;5.43;;;;;;;16.43;100.00;100698.97;4969204;28;20046;-87
2023/06/08 03:42:22;;;;;;;6.97;5.63;;;;;;;16.44;100.00;100697.84;4956096;29;20039;-87
2023/06/08 03:44:54;;;;;;;6.15;5.43;;;;;;;16.48;100.00;100707.94;4964175;28;20047;-87
2023/06/08 03:47:25;;;;;;;6.00;5.40;;;;;;;16.47;100.00;100698.00;4974899;28;20049;-87
2023/06/08 03:49:55;;;;;;;6.72;5.90;;;;;;;16.47;100.00;100705.50;4972545;28;20039;-87
2023/06/08 03:52:25;;;;;;;9.20;6.10;;;;;;;16.45;100.00;100700.28;4971541;28;20047;-87
2023/06/08 03:54:53;;;;;;;7.00;5.47;;;;;;;16.42;100.00;100697.34;4970868;28;20042;-87
2023/06/08 03:57:22;;;;;;;7.20;6.00;;;;;;;16.53;100.00;100704.22;4971289;28;20055;-87
2023/06/08 03:59:50;;;;;;;10.48;5.72;;;;;;;16.49;100.00;100698.53;4968541;28;20050;-87
2023/06/08 04:02:18;;;;;;;6.45;5.53;;;;;;;16.50;100.00;100691.03;4974747;28;20054;-87
2023/06/08 04:04:47;;;;;;;8.45;5.72;;;;;;;16.59;100.00;100694.69;4975710;28;20486;-85
2023/06/08 04:07:16;;;;;;;6.05;5.40;;;;;;;16.69;100.00;100690.81;4973750;28;20055;-88
2023/06/08 04:09:44;;;;;;;6.70;5.57;;;;;;;16.72;100.00;100701.22;4942714;28;20055;-89
2023/06/08 04:12:12;;;;;;;6.65;5.60;;;;;;;16.76;100.00;100704.97;4974859;28;20069;-88
2023/06/08 04:14:41;;;;;;;6.93;5.70;;;;;;;16.73;100.00;100702.88;4942620;28;20544;-89
2023/06/08 04:17:09;;;;;;;7.57;5.63;;;;;;;16.77;100.00;100708.56;4973924;28;20050;-89
2023/06/08 04:19:37;;;;;;;5.78;5.18;;;;;;;16.79;100.00;100711.81;4973903;28;20046;-89
2023/06/08 04:22:05;;;;;;;5.93;4.93;;;;;;;16.84;100.00;100708.91;4955030;28;20039;-90
2023/06/08 04:24:38;;;;;;;6.18;5.10;;;;;;;16.99;100.00;100712.34;4973759;28;20051;-89
2023/06/08 04:27:07;;;;;;;7.20;5.20;;;;;;;17.14;100.00;100711.97;4958710;28;20051;-91
2023/06/08 04:29:35;;;;;;;6.28;4.90;;;;;;;17.71;100.00;100710.22;4976878;28;20043;-94
2023/06/08 04:32:04;;;;;;;6.03;4.50;;;;;;;18.10;100.00;100713.16;4955721;29;20058;-93
2023/06/08 04:34:33;;;;;;;5.18;4.68;;;;;;;18.20;100.00;100705.66;4955168;28;20051;-94
2023/06/08 04:37:01;;;;;;;4.50;4.10;;;;;;;18.34;100.00;100714.56;4959555;28;20058;-93
2023/06/08 04:39:31;;;;;;;6.38;4.45;;;;;;;18.19;100.00;100715.09;4928251;29;20058;-94
2023/06/08 04:42:01;;;;;;;7.53;4.60;;;;;;;18.29;100.00;100722.25;4956990;28;20047;-94
2023/06/08 04:44:32;;;;;;;6.57;4.10;;;;;;;18.24;100.00;100718.50;4957095;29;20078;-95
2023/06/08 04:47:02;;;;;;;4.65;4.25;;;;;;;18.43;100.00;100720.09;4963255;28;20059;-94
2023/06/08 04:49:31;;;;;;;6.05;4.50;;;;;;;18.52;100.00;100718.13;4959378;28;20053;-95
2023/06/08 04:51:59;;;;;;;5.18;4.38;;;;;;;18.50;100.00;100728.72;4959542;28;20049;-95
2023/06/08 04:54:28;;;;;;;7.05;4.18;;;;;;;18.61;100.00;100731.13;4945614;28;20059;-93
2023/06/08 04:57:00;;;;;;;4.93;4.13;;;;;;;18.38;100.00;100720.28;4960444;28;20058;-95
2023/06/08 04:59:29;;;;;;;7.88;4.53;;;;;;;18.36;100.00;100723.38;4933937;28;20422;-95
2023/06/08 05:01:57;;;;;;;6.10;4.70;;;;;;;18.40;100.00;100720.75;4965385;28;20046;-93
2023/06/08 05:04:32;;;;;;;4.55;3.97;;;;;;;18.63;100.00;100724.09;4973638;28;20498;-96
2023/06/08 05:07:00;;;;;;;5.93;4.47;;;;;;;18.94;100.00;100724.97;4947144;28;20394;-96
2023/06/08 05:09:29;;;;;;;6.97;4.50;;;;;;;18.98;99.37;100711.25;4943313;28;20042;-89
2023/06/08 05:11:57;;;;;;;4.47;4.07;;;;;;;19.15;99.06;100729.78;4956173;28;20501;-92
2023/06/08 05:14:25;;;;;;;4.05;3.42;;;;;;;19.05;98.86;100730.97;4960499;28;20061;-92
2023/06/08 05:16:53;;;;;;;5.85;4.50;;;;;;;19.03;100.00;100731.31;4956539;28;20050;-96
2023/06/08 05:19:21;;;;;;;7.30;4.55;;;;;;;18.99;100.00;100730.31;4941511;28;20062;-93
2023/06/08 05:21:49;;;;;;;6.13;4.68;;;;;;;19.22;99.39;100730.06;4941250;28;20035;-95
2023/06/08 05:24:18;;;;;;;4.63;3.95;;;;;;;19.42;98.91;100736.81;4941976;28;20512;-92
2023/06/08 05:26:47;;;;;;;4.95;3.83;;;;;;;19.58;98.34;100731.47;4973666;28;20127;-93
2023/06/08 05:29:15;;;;;;;4.85;4.15;;;;;;;19.65;97.55;100730.13;4941290;28;20069;-93
2023/06/08 05:31:43;;;;;;;4.40;3.92;;;;;;;19.75;98.19;100746.38;4957607;28;20043;-92
2023/06/08 05:34:11;;;;;;;4.18;3.78;;;;;;;19.82;95.83;100729.97;4956607;28;20039;-92
2023/06/08 05:36:39;;;;;;;4.53;3.90;;;;;;;20.00;94.16;100732.63;4938065;29;20062;-91
2023/06/08 05:39:07;;;;;;;5.05;4.00;;;;;;;20.13;92.86;100727.91;4922854;29;20051;-92
2023/06/08 05:41:35;;;;;;;4.38;3.90;;;;;;;20.17;93.86;100731.63;4969001;28;20047;-91
2023/06/08 05:44:03;;;;;;;4.50;3.83;;;;;;;20.27;92.52;100725.66;4941571;28;20047;-90
2023/06/08 05:46:31;;;;;;;6.13;4.22;;;;;;;20.23;92.41;100721.13;4937988;28;20410;-93
2023/06/08 05:48:59;;;;;;;5.57;4.05;;;;;;;20.34;93.00;100722.31;4957679;28;20090;-93
2023/06/08 05:51:27;;;;;;;4.88;4.35;;;;;;;20.39;93.08;100718.50;4958222;28;20053;-93
2023/06/08 05:53:55;;;;;;;4.57;4.13;;;;;;;20.39;93.40;100726.84;4942896;28;20042;-94
2023/06/08 05:56:23;;;;;;;5.15;4.10;;;;;;;20.51;92.71;100721.31;4942864;28;20050;-94
2023/06/08 05:58:51;;;;;;;4.78;3.63;;;;;;;20.64;91.28;100724.91;4958512;28;20054;-94
2023/06/08 06:01:20;;;;;;;4.97;3.67;;;;;;;20.68;91.42;100728.63;4942788;28;20051;-95
2023/06/08 06:03:48;;;;;;;6.10;4.65;;;;;;;20.75;91.66;100732.81;4942242;28;20043;-95
2023/06/08 06:06:16;;;;;;;6.53;3.80;;;;;;;20.83;90.65;100720.78;4942596;28;20047;-94
2023/06/08 06:08:44;;;;;;;5.25;3.92;;;;;;;20.96;88.65;100718.81;4942442;28;20504;-95
2023/06/08 06:11:12;;;;;;;4.63;3.70;;;;;;;21.04;89.38;100717.09;4942271;28;20054;-95
2023/06/08 06:13:40;;;;;;;5.90;3.92;;;;;;;21.08;88.64;100729.94;4942276;28;20057;-94
2023/06/08 06:16:09;;;;;;;5.35;3.58;;;;;;;21.19;87.60;100730.31;4942244;28;20042;-94
2023/06/08 06:18:40;;;;;;;4.28;3.88;;;;;;;21.27;87.49;100724.94;4942438;28;20062;-93
2023/06/08 06:21:08;;;;;;;4.72;3.90;;;;;;;21.32;91.21;100708.81;4941842;28;20047;-93
2023/06/08 06:23:36;;;;;;;4.30;3.90;;;;;;;21.48;89.23;100717.25;4941940;28;20050;-93
2023/06/08 06:26:05;;;;;;;4.43;3.70;;;;;;;21.56;86.69;100715.47;4941743;28;20061;-93
2023/06/08 06:28:33;;;;;;;6.57;3.92;;;;;;;21.58;87.11;100704.81;4957309;28;20050;-94
2023/06/08 06:31:01;;;;;;;4.72;3.97;;;;;;;21.52;87.72;100705.41;4958134;28;20054;-93
2023/06/08 06:33:30;;;;;;;4.25;3.85;;;;;;;21.55;86.69;100708.31;4942143;28;20058;-94
2023/06/08 06:35:58;;;;;;;4.28;3.63;;;;;;;21.56;87.88;100714.69;4941944;28;20054;-93
2023/06/08 06:38:26;;;;;;;4.65;3.42;;;;;;;21.53;86.53;100707.03;4958043;28;20043;-94
2023/06/08 06:40:54;;;;;;;4.82;3.53;;;;;;;21.62;85.37;100713.28;4957989;28;20047;-93
2023/06/08 06:43:22;;;;;;;5.35;3.72;;;;;;;21.73;86.19;100708.88;4941925;28;20494;-94
2023/06/08 06:45:58;;;;;;;5.72;4.18;;;;;;;21.56;86.94;100703.56;4943157;28;20051;-96
2023/06/08 06:48:27;;;;;;;5.70;4.30;;;;;;;21.62;88.07;100702.94;4958020;28;20521;-93
2023/06/08 06:50:55;;;;;;;5.38;4.30;;;;;;;21.83;87.04;100706.72;4974023;28;20062;-95
2023/06/08 06:53:23;;;;;;;5.28;4.38;;;;;;;21.84;86.68;100708.34;4942158;28;20417;-94
2023/06/08 06:55:51;;;;;;;5.90;4.20;;;;;;;21.93;86.30;100700.66;4958093;28;20047;-95
2023/06/08 06:58:20;;;;;;;7.57;4.95;;;;;;;21.98;87.01;100708.75;4941863;28;20047;-95
2023/06/08 07:00:49;;;;;;;5.65;4.28;;;;;;;22.14;84.99;100705.22;4942271;28;20051;-95
2023/06/08 07:03:17;;;;;;;6.82;4.47;;;;;;;22.26;85.30;100707.13;4942264;28;20043;-95
2023/06/08 07:05:45;;;;;;;6.25;4.82;;;;;;;22.31;85.72;100719.97;4942330;28;20047;-96
2023/06/08 07:08:13;;;;;;;5.00;4.07;;;;;;;22.32;85.12;100713.22;4958846;28;20050;-96
2023/06/08 07:10:42;;;;;;;5.75;4.22;;;;;;;22.44;83.82;100715.13;4961339;28;20047;-95
2023/06/08 07:13:11;;;;;;;7.78;4.50;;;;;;;22.49;83.50;100715.66;4945970;28;20059;-96
2023/06/08 07:15:41;;;;;;;5.40;4.30;;;;;;;22.58;83.11;100706.38;4962276;28;20058;-94
2023/06/08 07:18:10;;;;;;;7.03;4.57;;;;;;;22.74;82.06;100709.97;4961966;28;20050;-95
2023/06/08 07:20:38;;;;;;;7.72;4.60;;;;;;;22.62;83.03;100708.06;4961853;28;20062;-95
2023/06/08 07:23:07;;;;;;;7.22;4.60;;;;;;;22.68;83.05;100700.25;4945793;28;20051;-94
2023/06/08 07:25:55;;;;;;;5.60;4.80;;;;;;;22.58;83.58;100695.22;4964312;28;20054;-94
2023/06/08 07:28:43;;;;;;;5.38;4.63;;;;;;;22.77;82.98;100703.66;4948571;28;20054;-93
2023/06/08 07:31:11;;;;;;;6.55;5.18;;;;;;;22.87;82.67;100690.34;4945747;28;20051;-95
2023/06/08 07:33:39;;;;;;;5.85;4.32;;;;;;;22.91;81.47;100691.22;4945745;28;20051;-93
2023/06/08 07:36:07;;;;;;;5.03;4.57;;;;;;;23.09;80.17;100689.69;4945613;28;20049;-93
2023/06/08 07:38:35;;;;;;;6.07;4.95;;;;;;;23.13;79.45;100688.94;4945267;28;20058;-92
2023/06/08 07:41:03;;;;;;;6.82;5.20;;;;;;;23.29;79.77;100694.47;4961064;28;20050;-92
2023/06/08 07:43:31;;;;;;;6.03;5.25;;;;;;;23.25;78.76;100694.38;4960631;28;20046;-89
2023/06/08 07:45:59;;;;;;;6.60;4.72;;;;;;;23.35;77.76;100693.84;4977745;28;20034;-91
2023/06/08 07:48:27;;;;;;;7.63;5.43;;;;;;;23.52;78.23;100691.81;4979755;28;20057;-89
2023/06/08 07:50:55;;;;;;;5.18;4.53;;;;;;;23.46;77.24;100691.28;4983880;28;20030;-89
2023/06/08 07:53:23;;;;;;;6.03;4.88;;;;;;;23.42;76.78;100697.97;4984551;28;20055;-88
2023/06/08 07:55:51;;;;;;;7.55;5.57;;;;;;;23.34;74.91;100688.63;4985850;28;20037;-89
2023/06/08 07:58:19;;;;;;;5.97;4.72;;;;;;;23.36;76.68;100694.66;4985761;28;20039;-91
2023/06/08 08:00:47;;;;;;;8.93;5.82;;;;;;;23.41;77.72;100680.41;4986095;28;20027;-92
2023/06/08 08:03:15;;;;;;;6.50;5.35;;;;;;;23.42;74.23;100692.41;4985989;28;20022;-90
2023/06/08 08:05:43;;;;;;;5.95;5.35;;;;;;;23.67;73.98;100692.09;4970151;28;20037;-92
2023/06/08 08:08:11;;;;;;;6.10;4.82;;;;;;;23.64;73.08;100690.84;4970071;28;20027;-90
2023/06/08 08:10:39;;;;;;;6.82;5.40;;;;;;;23.65;73.04;100686.09;4986030;28;20037;-91
2023/06/08 08:13:08;;;;;;;6.50;5.28;;;;;;;23.83;72.39;100701.22;4985546;28;20051;-93
2023/06/08 08:15:36;;;;;;;6.93;5.25;;;;;;;23.84;73.06;100690.84;4985666;28;20031;-91
2023/06/08 08:18:04;;;;;;;9.13;5.88;;;;;;;23.82;74.74;100694.03;4980652;28;20053;-94
2023/06/08 08:20:33;;;;;;;6.82;5.18;;;;;;;23.88;72.34;100686.13;4964032;28;20039;-91
2023/06/08 08:23:00;;;;;;;7.38;5.72;;;;;;;24.01;72.68;100693.19;4965536;28;20065;-91
2023/06/08 08:25:28;;;;;;;7.65;5.55;;;;;;;24.11;71.35;100683.44;4979236;28;20057;-92
2023/06/08 08:27:57;;;;;;;9.70;5.60;;;;;;;24.09;69.84;100690.56;4978520;28;20039;-92
2023/06/08 08:30:26;;;;;;;7.45;5.05;;;;;;;24.16;70.20;100673.94;4962368;28;20054;-92
2023/06/08 08:32:55;;;;;;;7.78;5.50;;;;;;;24.07;70.82;100687.28;4961200;28;20049;-91
2023/06/08 08:35:28;;;;;;;7.65;5.25;;;;;;;24.26;70.54;100692.06;4962339;28;20078;-92
2023/06/08 08:37:57;;;;;;;6.95;4.88;;;;;;;24.33;69.71;100689.41;4961984;28;20051;-92
2023/06/08 08:40:25;;;;;;;7.22;5.88;;;;;;;24.20;70.50;100688.78;4960973;28;20058;-93
2023/06/08 08:43:00;;;;;;;5.68;4.40;;;;;;;24.34;71.00;100691.00;4961827;28;20055;-93
2023/06/08 08:45:33;;;;;;;5.43;4.70;;;;;;;24.33;70.05;100694.97;4978264;28;20031;-92
2023/06/08 08:48:02;;;;;;;5.43;4.85;;;;;;;24.55;69.28;100692.56;4979912;28;20103;-93
2023/06/08 08:50:34;;;;;;;7.03;4.90;;;;;;;24.72;69.09;100690.44;4998165;28;20057;-93
2023/06/08 08:53:02;;;;;;;6.20;5.25;;;;;;;24.61;68.16;100688.28;4961273;28;20053;-92
2023/06/08 08:55:33;;;;;;;6.60;5.60;;;;;;;24.58;70.21;100689.00;4956735;28;20054;-92
2023/06/08 08:58:05;;;;;;;7.55;6.05;;;;;;;24.41;68.12;100690.34;4950356;28;20058;-91
2023/06/08 09:00:33;;;;;;;8.07;5.88;;;;;;;24.53;69.22;100689.31;4976107;28;20051;-93
2023/06/08 09:03:02;;;;;;;8.50;5.97;;;;;;;24.71;69.05;100689.63;4945342;28;20054;-93
2023/06/08 09:05:30;;;;;;;6.85;4.80;;;;;;;24.71;68.07;100689.63;4943159;28;20405;-92
2023/06/08 09:07:58;;;;;;;7.13;4.97;;;;;;;24.93;68.40;100688.00;4943517;28;20058;-92
2023/06/08 09:10:27;;;;;;;6.70;5.22;;;;;;;24.98;68.38;100684.09;4959062;28;20051;-92
2023/06/08 09:12:56;;;;;;;6.03;5.43;;;;;;;24.90;67.50;100679.56;4942591;28;20051;-92
2023/06/08 09:15:33;;;;;;;8.43;5.20;;;;;;;24.98;68.79;100688.88;4958290;28;20051;-92
2023/06/08 09:18:15;;;;;;;6.82;5.75;;;;;;;25.08;68.22;100682.63;4939361;29;20051;-92
2023/06/08 09:20:45;;;;;;;8.77;5.05;;;;;;;25.17;65.01;100676.75;4924452;29;20418;-92
2023/06/08 09:23:25;;;;;;;8.55;5.13;;;;;;;25.22;65.03;100677.22;4924182;29;20081;-92
2023/06/08 09:25:53;;;;;;;6.80;4.68;;;;;;;25.20;65.32;100657.19;4955254;28;20498;-92
2023/06/08 09:28:26;;;;;;;7.53;5.65;;;;;;;25.37;64.84;100666.22;4923701;29;20047;-93
2023/06/08 09:31:00;;;;;;;8.07;5.37;;;;;;;25.45;63.09;100662.31;4923788;29;20059;-92
2023/06/08 09:33:32;;;;;;;5.97;4.88;;;;;;;25.45;61.90;100667.91;4923714;29;20054;-93
2023/06/08 09:36:01;;;;;;;4.95;4.32;;;;;;;25.57;63.88;100663.28;4940499;29;20071;-93
2023/06/08 09:38:32;;;;;;;6.20;5.22;;;;;;;25.44;65.35;100652.31;4923860;29;20047;-94
2023/06/08 09:41:16;;;;;;;6.47;5.20;;;;;;;25.42;63.81;100654.66;4924123;29;20055;-93
2023/06/08 09:43:46;;;;;;;6.80;5.75;;;;;;;25.39;63.48;100654.63;4955809;29;20043;-94
2023/06/08 09:46:47;;;;;;;6.43;4.90;;;;;;;25.52;64.90;100655.19;4923946;29;20062;-95
2023/06/08 09:49:17;;;;;;;5.95;4.75;;;;;;;25.66;63.72;100651.78;4922259;29;20399;-93
2023/06/08 09:51:48;;;;;;;5.50;4.40;;;;;;;25.90;63.69;100642.03;4955457;29;20422;-94
2023/06/08 09:54:20;;;;;;;4.30;3.78;;;;;;;26.10;60.45;100653.06;4939450;29;20062;-93
2023/06/08 09:56:54;;;;;;;5.68;4.40;;;;;;;26.16;60.16;100648.72;4940009;29;20054;-95
2023/06/08 09:59:38;;;;;;;5.63;4.60;;;;;;;26.31;61.69;100646.88;4939519;29;20131;-94
2023/06/08 10:02:38;;;;;;;5.60;4.88;;;;;;;26.23;61.26;100636.75;4923905;29;20056;-95
2023/06/08 10:05:13;;;;;;;5.93;4.38;;;;;;;26.27;61.64;100646.84;4923755;29;20051;-95
2023/06/08 10:07:47;;;;;;;5.63;4.38;;;;;;;26.22;61.51;100641.53;4939058;29;20047;-95
2023/06/08 10:10:22;;;;;;;4.97;4.38;;;;;;;26.14;59.40;100634.25;4938760;29;20051;-94
2023/06/08 10:12:51;;;;;;;4.65;3.97;;;;;;;26.16;59.30;100638.28;4924365;29;20048;-94
2023/06/08 10:15:21;;;;;;;4.63;3.92;;;;;;;26.15;59.41;100633.06;4927971;29;20055;-95
2023/06/08 10:17:57;;;;;;;5.15;3.80;;;;;;;26.10;58.93;100630.63;4924729;29;20058;-95
2023/06/08 10:20:27;;;;;;;5.20;3.90;;;;;;;26.22;62.88;100630.34;4954025;28;20055;-95
2023/06/08 10:22:58;;;;;;;5.50;4.32;;;;;;;26.39;60.22;100628.09;4956181;29;20525;-96
2023/06/08 10:25:55;;;;;;;7.03;4.63;;;;;;;26.27;58.41;100623.59;4927989;29;20064;-96
2023/06/08 10:28:24;;;;;;;5.15;4.43;;;;;;;26.42;60.35;100627.31;4938834;29;20658;-94
2023/06/08 10:30:52;;;;;;;4.95;4.35;;;;;;;26.52;60.33;100620.97;4955865;29;20054;-94
2023/06/08 10:33:24;;;;;;;5.95;4.97;;;;;;;26.53;59.88;100627.38;4929726;29;20509;-94
2023/06/08 10:36:11;;;;;;;7.25;5.60;;;;;;;26.65;60.44;100620.66;4922628;29;20051;-93
2023/06/08 10:38:59;;;;;;;5.18;4.60;;;;;;;26.63;58.74;100625.88;4923876;29;20054;-94
2023/06/08 10:41:57;;;;;;;5.60;4.43;;;;;;;26.52;57.88;100618.19;4937935;29;20059;-94
2023/06/08 10:44:25;;;;;;;4.75;4.25;;;;;;;26.79;58.54;100612.31;4922297;29;20051;-93
2023/06/08 10:47:08;;;;;;;5.10;4.00;;;;;;;27.19;59.64;100606.97;4938165;29;20047;-93
2023/06/08 10:49:38;;;;;;;5.45;4.85;;;;;;;27.33;59.54;100617.44;4937433;29;20063;-93
2023/06/08 10:52:09;;;;;;;5.78;5.20;;;;;;;26.89;61.58;100613.63;4938662;29;20047;-94
2023/06/08 10:54:53;;;;;;;5.30;4.50;;;;;;;27.06;59.89;100606.50;4922350;29;20050;-93
2023/06/08 10:57:54;;;;;;;8.80;4.60;;;;;;;27.19;59.93;100601.34;4922718;29;20055;-94
2023/06/08 11:00:25;;;;;;;5.32;4.82;;;;;;;27.22;59.00;100611.00;4891806;29;20062;-94
2023/06/08 11:02:59;;;;;;;4.38;3.75;;;;;;;27.35;58.07;100606.63;4938269;29;20055;-94
2023/06/08 11:05:32;;;;;;;5.07;3.97;;;;;;;27.28;57.65;100609.41;4921613;29;20066;-94
2023/06/08 11:08:01;;;;;;;4.70;4.10;;;;;;;27.17;58.48;100597.34;4922333;29;20494;-94
2023/06/08 11:10:33;;;;;;;4.03;3.63;;;;;;;26.92;59.07;100600.78;4921854;29;20383;-92
2023/06/08 11:13:09;;;;;;;4.65;4.07;;;;;;;26.79;59.53;100595.50;4937493;29;20051;-93
2023/06/08 11:15:39;;;;;;;6.15;4.72;;;;;;;26.60;61.68;100592.97;4921869;29;20063;-94
2023/06/08 11:18:11;;;;;;;6.85;5.72;;;;;;;26.73;63.35;100594.25;4937650;29;20059;-93
2023/06/08 11:20:41;;;;;;;9.73;5.70;;;;;;;26.91;58.83;100591.59;4937578;29;20058;-92
2023/06/08 11:23:11;;;;;;;6.00;5.32;;;;;;;27.07;61.93;100588.44;4921729;29;20518;-93
2023/06/08 11:25:41;;;;;;;6.25;4.53;;;;;;;27.09;58.48;100577.63;4937761;29;20074;-92
2023/06/08 11:28:11;;;;;;;5.43;4.03;;;;;;;27.34;59.29;100584.53;4922668;29;20066;-93
2023/06/08 11:30:39;;;;;;;5.88;4.43;;;;;;;27.43;58.11;100575.75;4924225;28;20055;-92
2023/06/08 11:33:14;;;;;;;4.75;4.07;;;;;;;27.49;57.13;100574.97;4952660;28;20055;-93
2023/06/08 11:35:42;;;;;;;6.10;4.65;;;;;;;27.80;55.35;100577.44;4955016;28;20043;-92
2023/06/08 11:38:11;;;;;;;5.47;4.47;;;;;;;27.64;56.98;100572.22;4940428;28;20043;-93